Time;durP1;ratioP1;P1;durP2;ratioP2;P2;SDS_P1;SDS_P2;PMS_P1;PMS_P2;Temp;Humidity;BMP_temperature;BMP_pressure;BME280_temperature;BME280_humidity;BME280_pressure;Samples;Min_cycle;Max_cycle;Signal;HPM_P1;HPM_P2
2023/12/03 00:02:21;;;;;;;18.53;13.03;;;1.30;99.90;;;;;;5024689;28;20434;-65
2023/12/03 00:04:48;;;;;;;20.67;12.73;;;1.30;99.90;;;;;;5033740;28;20511;-66
2023/12/03 00:07:14;;;;;;;19.10;12.80;;;1.40;99.90;;;;;;5027432;28;20490;-66
2023/12/03 00:09:39;;;;;;;21.13;14.70;;;1.30;99.90;;;;;;5030024;28;20505;-65
2023/12/03 00:12:06;;;;;;;21.10;13.00;;;1.30;99.90;;;;;;5021331;28;20425;-65
2023/12/03 00:14:32;;;;;;;21.60;14.20;;;1.20;99.90;;;;;;5021266;28;20209;-66
2023/12/03 00:16:57;;;;;;;16.80;12.90;;;1.30;99.90;;;;;;5030962;28;20489;-67
2023/12/03 00:19:24;;;;;;;22.83;14.47;;;1.40;99.90;;;;;;5030493;28;20199;-66
2023/12/03 00:21:50;;;;;;;21.50;14.20;;;1.40;99.90;;;;;;5025304;28;20219;-66
2023/12/03 00:24:16;;;;;;;23.67;15.17;;;1.30;99.90;;;;;;5026965;28;20875;-66
2023/12/03 00:26:42;;;;;;;18.67;13.20;;;1.20;99.90;;;;;;5025416;28;20435;-66
2023/12/03 00:29:07;;;;;;;22.70;14.20;;;1.20;99.90;;;;;;5023771;28;20184;-67
2023/12/03 00:31:34;;;;;;;20.30;14.20;;;1.30;99.90;;;;;;5027743;28;20513;-66
2023/12/03 00:34:02;;;;;;;23.77;14.33;;;1.30;99.90;;;;;;5028008;28;20196;-66
2023/12/03 00:36:27;;;;;;;26.00;14.43;;;1.40;99.90;;;;;;5022531;28;21268;-68
2023/12/03 00:38:53;;;;;;;21.47;14.77;;;1.30;99.90;;;;;;5017103;28;20498;-66
2023/12/03 00:41:18;;;;;;;24.80;15.00;;;1.40;99.90;;;;;;5021772;28;20219;-66
2023/12/03 00:43:44;;;;;;;22.20;13.87;;;1.20;99.90;;;;;;5021344;28;20262;-66
2023/12/03 00:46:09;;;;;;;22.27;14.83;;;1.10;99.90;;;;;;5024589;28;20187;-66
2023/12/03 00:48:35;;;;;;;21.17;14.33;;;1.10;99.90;;;;;;5026535;28;20713;-65
2023/12/03 00:51:00;;;;;;;23.50;14.80;;;1.20;99.90;;;;;;5028173;28;20212;-65
2023/12/03 00:53:26;;;;;;;23.60;15.33;;;1.20;99.90;;;;;;5022749;28;20211;-65
2023/12/03 00:55:53;;;;;;;21.80;14.53;;;1.20;99.90;;;;;;5030838;28;20580;-65
2023/12/03 00:58:19;;;;;;;23.73;14.93;;;1.20;99.90;;;;;;5027765;28;20577;-66
2023/12/03 01:00:44;;;;;;;22.57;16.27;;;1.10;99.90;;;;;;5029268;28;20427;-65
2023/12/03 01:03:10;;;;;;;22.43;15.03;;;1.10;99.90;;;;;;5021676;28;20536;-65
2023/12/03 01:05:35;;;;;;;28.00;15.53;;;1.10;99.90;;;;;;5021254;28;20185;-65
2023/12/03 01:08:01;;;;;;;20.37;13.90;;;1.00;99.90;;;;;;5017438;28;20195;-65
2023/12/03 01:10:26;;;;;;;22.87;14.63;;;1.10;99.90;;;;;;5022232;28;20255;-65
2023/12/03 01:12:52;;;;;;;23.40;15.97;;;1.10;99.90;;;;;;5020813;28;20212;-65
2023/12/03 01:15:17;;;;;;;25.73;14.93;;;1.30;99.90;;;;;;5023340;28;20666;-65
2023/12/03 01:17:43;;;;;;;26.23;14.97;;;1.20;99.90;;;;;;5022774;28;20189;-65
2023/12/03 01:20:09;;;;;;;22.73;14.03;;;1.10;99.90;;;;;;5026366;28;20732;-65
2023/12/03 01:22:35;;;;;;;27.93;15.17;;;1.10;99.90;;;;;;5025564;28;20234;-67
2023/12/03 01:25:00;;;;;;;23.23;15.53;;;1.10;99.90;;;;;;5026280;28;20418;-66
2023/12/03 01:27:26;;;;;;;22.37;14.60;;;1.20;99.90;;;;;;5026783;28;20230;-66
2023/12/03 01:29:51;;;;;;;21.67;14.60;;;1.10;99.90;;;;;;5026925;28;20614;-66
2023/12/03 01:32:17;;;;;;;23.33;14.80;;;1.10;99.90;;;;;;5014110;28;20560;-67
2023/12/03 01:34:42;;;;;;;24.17;14.67;;;1.10;99.90;;;;;;5028615;28;20287;-66
2023/12/03 01:37:08;;;;;;;23.60;14.80;;;1.10;99.90;;;;;;5025451;28;20183;-66
2023/12/03 01:39:34;;;;;;;23.87;14.47;;;1.20;99.90;;;;;;5020017;28;20608;-66
2023/12/03 01:42:00;;;;;;;22.47;14.17;;;1.10;99.90;;;;;;5025425;28;20446;-66
2023/12/03 01:44:25;;;;;;;23.33;14.20;;;1.00;99.90;;;;;;5023757;28;20203;-66
2023/12/03 01:46:51;;;;;;;22.00;13.30;;;0.90;99.90;;;;;;5028746;28;20176;-66
2023/12/03 01:49:18;;;;;;;22.10;13.90;;;0.90;99.90;;;;;;5021138;28;20184;-66
2023/12/03 01:51:46;;;;;;;24.90;16.03;;;1.00;99.90;;;;;;5018653;28;20251;-66
2023/12/03 01:54:12;;;;;;;24.70;15.20;;;0.90;99.90;;;;;;5019678;28;20762;-66
2023/12/03 01:56:38;;;;;;;26.10;15.70;;;0.90;99.90;;;;;;5020133;28;20419;-66
2023/12/03 01:59:04;;;;;;;26.30;14.07;;;0.80;99.90;;;;;;5022443;28;20851;-65
2023/12/03 02:01:29;;;;;;;24.33;15.10;;;0.80;99.90;;;;;;5026689;28;20191;-65
2023/12/03 02:03:55;;;;;;;24.20;15.37;;;0.80;99.90;;;;;;5022580;28;20209;-65
2023/12/03 02:06:21;;;;;;;23.27;15.37;;;0.80;99.90;;;;;;5021216;28;20183;-65
2023/12/03 02:08:46;;;;;;;24.83;14.80;;;0.80;99.90;;;;;;5025735;28;20207;-67
2023/12/03 02:11:12;;;;;;;25.67;14.97;;;0.80;99.90;;;;;;5017877;28;20499;-65
2023/12/03 02:13:38;;;;;;;27.37;17.10;;;0.90;99.90;;;;;;5021613;28;20811;-65
2023/12/03 02:16:05;;;;;;;28.13;16.73;;;1.10;99.90;;;;;;5021258;28;20444;-66
2023/12/03 02:18:32;;;;;;;24.47;15.67;;;1.20;99.90;;;;;;5023671;28;20428;-65
2023/12/03 02:20:58;;;;;;;26.70;16.03;;;1.10;99.90;;;;;;5026578;28;20569;-66
2023/12/03 02:23:27;;;;;;;25.47;15.40;;;1.10;99.90;;;;;;5021939;28;20475;-66
2023/12/03 02:25:53;;;;;;;25.70;16.70;;;1.10;99.90;;;;;;5029483;28;20184;-66
2023/12/03 02:28:19;;;;;;;28.60;18.00;;;1.00;99.90;;;;;;5018819;28;20427;-65
2023/12/03 02:30:44;;;;;;;24.33;16.27;;;0.90;99.90;;;;;;5014988;28;20243;-66
2023/12/03 02:33:10;;;;;;;27.10;16.57;;;0.90;99.90;;;;;;5013804;28;20553;-66
2023/12/03 02:35:35;;;;;;;25.47;16.53;;;1.00;99.90;;;;;;5016896;28;20187;-65
2023/12/03 02:38:01;;;;;;;24.67;14.37;;;0.90;99.90;;;;;;5019760;28;20630;-65
2023/12/03 02:40:31;;;;;;;23.53;15.20;;;1.10;99.90;;;;;;5021171;28;20575;-66
2023/12/03 02:42:57;;;;;;;27.87;16.47;;;0.80;99.90;;;;;;5026028;28;20201;-65
2023/12/03 02:45:22;;;;;;;25.17;16.30;;;0.80;99.90;;;;;;5023769;28;20426;-65
2023/12/03 02:47:48;;;;;;;29.37;17.50;;;0.70;99.90;;;;;;5023752;28;20176;-66
2023/12/03 02:50:13;;;;;;;26.17;16.17;;;0.60;99.90;;;;;;5025414;28;20214;-66
2023/12/03 02:52:40;;;;;;;26.17;17.07;;;0.70;99.90;;;;;;5025493;28;20265;-67
2023/12/03 02:55:07;;;;;;;26.70;16.40;;;0.60;99.90;;;;;;5017846;28;20599;-67
2023/12/03 02:57:33;;;;;;;29.40;16.83;;;0.70;99.90;;;;;;5018605;28;20423;-67
2023/12/03 02:59:58;;;;;;;28.63;16.20;;;0.60;99.90;;;;;;5021542;28;20948;-67
2023/12/03 03:02:24;;;;;;;29.63;16.00;;;0.60;99.90;;;;;;5025742;28;20534;-67
2023/12/03 03:04:49;;;;;;;29.40;17.37;;;0.60;99.90;;;;;;5027917;28;20234;-66
2023/12/03 03:07:15;;;;;;;35.67;18.17;;;0.60;99.90;;;;;;5025079;28;20778;-65
2023/12/03 03:09:40;;;;;;;25.60;16.43;;;0.50;99.90;;;;;;5022491;28;20192;-65
2023/12/03 03:12:06;;;;;;;28.60;18.00;;;0.50;99.90;;;;;;5017019;28;20186;-65
2023/12/03 03:14:32;;;;;;;32.00;17.27;;;0.50;99.90;;;;;;5019161;28;20707;-66
2023/12/03 03:16:57;;;;;;;26.67;16.03;;;0.50;99.90;;;;;;5022430;28;20203;-65
2023/12/03 03:19:23;;;;;;;27.53;15.90;;;0.60;99.90;;;;;;5019263;28;20189;-65
2023/12/03 03:21:52;;;;;;;31.03;18.17;;;0.50;99.90;;;;;;5019158;28;20185;-68
2023/12/03 03:24:20;;;;;;;34.47;18.60;;;0.50;99.90;;;;;;5034664;28;20219;-66
2023/12/03 03:26:45;;;;;;;28.23;16.20;;;0.50;99.90;;;;;;5022823;28;20438;-67
2023/12/03 03:29:11;;;;;;;28.07;17.47;;;0.50;99.90;;;;;;5028917;28;20495;-66
2023/12/03 03:31:36;;;;;;;26.47;15.10;;;0.40;99.90;;;;;;5031381;28;20214;-66
2023/12/03 03:34:03;;;;;;;29.20;16.80;;;0.40;99.90;;;;;;5022269;28;20200;-66
2023/12/03 03:36:28;;;;;;;31.50;17.87;;;0.50;99.90;;;;;;5021032;28;20606;-66
2023/12/03 03:38:54;;;;;;;31.73;17.53;;;0.40;99.90;;;;;;5022548;28;20931;-66
2023/12/03 03:41:19;;;;;;;27.50;17.00;;;0.30;99.90;;;;;;5025835;28;20269;-65
2023/12/03 03:43:45;;;;;;;30.07;17.03;;;0.30;99.90;;;;;;5027081;28;20601;-66
2023/12/03 03:46:11;;;;;;;30.27;17.03;;;0.40;99.90;;;;;;5022773;28;20270;-65
2023/12/03 03:48:36;;;;;;;32.77;18.23;;;0.40;99.90;;;;;;5020058;28;20211;-65
2023/12/03 03:51:05;;;;;;;29.97;18.23;;;0.40;99.90;;;;;;5024873;28;20474;-65
2023/12/03 03:53:30;;;;;;;33.07;17.40;;;0.30;99.90;;;;;;5017161;28;20196;-66
2023/12/03 03:55:56;;;;;;;29.33;17.00;;;0.30;99.90;;;;;;5022160;28;20432;-67
2023/12/03 03:58:21;;;;;;;27.53;15.00;;;0.30;99.90;;;;;;5031319;28;20625;-66
2023/12/03 04:00:47;;;;;;;34.90;17.77;;;0.20;99.90;;;;;;5028214;28;20188;-67
2023/12/03 04:03:13;;;;;;;28.60;16.50;;;0.20;99.90;;;;;;5016984;28;20235;-66
2023/12/03 04:05:38;;;;;;;26.60;16.10;;;0.20;99.90;;;;;;5021705;28;20183;-67
2023/12/03 04:08:04;;;;;;;27.50;17.13;;;0.20;99.90;;;;;;5026108;28;20211;-66
2023/12/03 04:10:29;;;;;;;27.13;16.50;;;0.10;99.90;;;;;;5022755;28;20195;-67
2023/12/03 04:12:56;;;;;;;25.77;15.40;;;0.10;99.90;;;;;;5025430;28;20202;-67
2023/12/03 04:15:21;;;;;;;27.47;15.60;;;0.10;99.90;;;;;;5022933;28;20215;-67
2023/12/03 04:17:47;;;;;;;27.20;17.30;;;0.00;99.90;;;;;;5021477;28;20965;-67
2023/12/03 04:20:13;;;;;;;29.40;15.50;;;0.10;99.90;;;;;;5017051;28;20223;-67
2023/12/03 04:22:38;;;;;;;28.07;16.13;;;0.10;99.90;;;;;;5022935;28;20182;-68
2023/12/03 04:25:10;;;;;;;29.37;16.07;;;0.10;99.90;;;;;;5020896;28;20238;-68
2023/12/03 04:27:36;;;;;;;31.60;17.13;;;0.00;99.90;;;;;;5024797;28;20191;-67
2023/12/03 04:30:02;;;;;;;29.87;16.00;;;0.00;99.90;;;;;;5022284;28;20466;-67
2023/12/03 04:32:27;;;;;;;28.00;15.37;;;0.00;99.90;;;;;;5018833;28;20266;-67
2023/12/03 04:34:53;;;;;;;27.77;16.63;;;0.10;99.90;;;;;;5019679;28;20176;-67
2023/12/03 04:37:18;;;;;;;27.03;16.30;;;0.10;99.90;;;;;;5023109;28;20662;-67
2023/12/03 04:39:44;;;;;;;32.83;17.87;;;0.10;99.90;;;;;;5018914;28;20199;-67
2023/12/03 04:42:09;;;;;;;29.27;15.90;;;0.00;99.90;;;;;;5022745;28;20170;-67
2023/12/03 04:44:35;;;;;;;24.50;15.47;;;-0.10;99.90;;;;;;5028719;28;20209;-67
2023/12/03 04:47:01;;;;;;;28.00;15.10;;;-0.20;99.90;;;;;;5027688;28;20175;-67
2023/12/03 04:49:26;;;;;;;24.63;15.67;;;-0.20;99.90;;;;;;5029392;28;20271;-67
2023/12/03 04:51:52;;;;;;;27.90;16.20;;;-0.10;99.90;;;;;;5031521;28;20216;-67
2023/12/03 04:54:17;;;;;;;29.90;17.80;;;-0.10;99.90;;;;;;5026984;28;20212;-66
2023/12/03 04:56:43;;;;;;;33.90;18.60;;;-0.10;99.90;;;;;;5021762;28;20249;-66
2023/12/03 04:59:09;;;;;;;24.97;15.00;;;-0.30;99.90;;;;;;5022164;28;20727;-66
2023/12/03 05:01:34;;;;;;;25.90;15.90;;;-0.30;99.90;;;;;;5022096;28;20507;-65
2023/12/03 05:04:00;;;;;;;26.97;15.80;;;-0.20;99.90;;;;;;5023491;28;20211;-65
2023/12/03 05:06:25;;;;;;;28.60;16.37;;;-0.40;99.90;;;;;;5025758;28;20232;-65
2023/12/03 05:08:51;;;;;;;29.47;16.17;;;-0.30;99.90;;;;;;5022525;28;20256;-65
2023/12/03 05:11:17;;;;;;;30.00;16.53;;;-0.20;99.90;;;;;;5021973;28;20270;-66
2023/12/03 05:13:42;;;;;;;24.80;14.30;;;-0.20;99.90;;;;;;5019124;28;20254;-66
2023/12/03 05:16:09;;;;;;;28.10;15.77;;;-0.30;99.90;;;;;;5021798;28;20187;-65
2023/12/03 05:18:34;;;;;;;25.10;15.57;;;-0.40;99.90;;;;;;5020293;28;20410;-65
2023/12/03 05:21:01;;;;;;;24.13;15.10;;;-0.40;99.90;;;;;;5026889;28;20564;-65
2023/12/03 05:23:27;;;;;;;25.63;14.40;;;-0.40;99.90;;;;;;5019636;28;20215;-66
2023/12/03 05:25:52;;;;;;;25.73;15.63;;;-0.50;99.90;;;;;;5016721;28;20492;-67
2023/12/03 05:28:18;;;;;;;27.77;15.70;;;-0.40;99.90;;;;;;5022310;28;20674;-67
2023/12/03 05:30:44;;;;;;;25.63;16.13;;;-0.30;99.90;;;;;;5018143;28;20213;-67
2023/12/03 05:33:10;;;;;;;29.97;16.20;;;-0.40;99.90;;;;;;5016231;28;20200;-67
2023/12/03 05:35:35;;;;;;;31.70;17.17;;;-0.50;99.90;;;;;;5024617;28;20469;-66
2023/12/03 05:38:01;;;;;;;23.77;15.63;;;-0.40;99.90;;;;;;5020195;28;20183;-67
2023/12/03 05:40:27;;;;;;;26.70;15.17;;;-0.50;99.90;;;;;;5025416;28;20724;-67
2023/12/03 05:42:52;;;;;;;26.17;15.90;;;-0.40;99.90;;;;;;5030158;28;20213;-67
2023/12/03 05:45:18;;;;;;;23.20;14.83;;;-0.40;99.90;;;;;;5031171;28;20190;-67
2023/12/03 05:47:44;;;;;;;26.03;14.83;;;-0.40;99.90;;;;;;5025550;28;20178;-67
2023/12/03 05:50:09;;;;;;;24.03;15.93;;;-0.60;99.90;;;;;;5022727;28;20207;-67
2023/12/03 05:52:35;;;;;;;26.10;15.07;;;-0.60;99.90;;;;;;5025860;28;20174;-67
2023/12/03 05:55:01;;;;;;;24.47;15.63;;;-0.60;99.90;;;;;;5018644;28;20182;-67
2023/12/03 05:57:29;;;;;;;26.73;14.50;;;-0.70;99.90;;;;;;5027852;28;20235;-68
2023/12/03 05:59:54;;;;;;;24.70;13.30;;;-0.60;99.90;;;;;;5019190;28;20177;-67
2023/12/03 06:02:20;;;;;;;29.47;16.50;;;-0.60;99.90;;;;;;5013389;28;20502;-66
2023/12/03 06:04:46;;;;;;;23.00;14.60;;;-0.60;99.90;;;;;;5015704;28;20240;-66
2023/12/03 06:07:11;;;;;;;26.30;14.80;;;-0.70;99.90;;;;;;5019992;28;20735;-66
2023/12/03 06:09:37;;;;;;;26.80;14.57;;;-0.60;99.90;;;;;;5019550;28;20175;-67
2023/12/03 06:12:03;;;;;;;23.67;14.50;;;-0.70;99.90;;;;;;5019745;28;20218;-67
2023/12/03 06:14:29;;;;;;;23.43;14.80;;;-0.60;99.90;;;;;;5019419;28;20442;-67
2023/12/03 06:16:54;;;;;;;26.20;15.00;;;-0.60;99.90;;;;;;5018317;28;20897;-66
2023/12/03 06:19:20;;;;;;;26.83;15.40;;;-0.70;99.90;;;;;;5019546;28;20254;-66
2023/12/03 06:21:45;;;;;;;26.23;14.30;;;-0.70;99.90;;;;;;5015166;28;20275;-67
2023/12/03 06:24:11;;;;;;;25.60;14.87;;;-0.60;99.90;;;;;;5019089;28;20199;-65
2023/12/03 06:26:36;;;;;;;22.87;13.90;;;-0.60;99.90;;;;;;5016383;28;20559;-67
2023/12/03 06:29:02;;;;;;;22.07;14.40;;;-0.70;99.90;;;;;;5018000;28;20190;-65
2023/12/03 06:31:28;;;;;;;22.47;14.10;;;-0.70;99.90;;;;;;5022666;28;20721;-66
2023/12/03 06:33:53;;;;;;;22.60;13.03;;;-0.70;99.90;;;;;;5020308;28;20737;-66
2023/12/03 06:36:19;;;;;;;29.73;14.40;;;-0.60;99.90;;;;;;5015956;28;20513;-66
2023/12/03 06:38:45;;;;;;;25.63;14.47;;;-0.60;99.90;;;;;;5013181;28;20184;-66
2023/12/03 06:41:10;;;;;;;24.10;14.83;;;-0.60;99.90;;;;;;5015413;28;20183;-66
2023/12/03 06:43:36;;;;;;;22.10;14.00;;;-0.60;99.90;;;;;;5017087;28;20208;-66
2023/12/03 06:46:02;;;;;;;24.70;13.80;;;-0.70;99.90;;;;;;5016831;28;20216;-66
2023/12/03 06:48:27;;;;;;;26.10;14.20;;;-0.70;99.90;;;;;;5017351;28;20759;-66
2023/12/03 06:50:53;;;;;;;24.93;15.67;;;-0.80;99.90;;;;;;5018531;28;20218;-66
2023/12/03 06:53:19;;;;;;;24.67;14.83;;;-0.70;99.90;;;;;;5020005;28;20200;-66
2023/12/03 06:55:45;;;;;;;26.87;15.43;;;-0.70;99.90;;;;;;5021114;28;20504;-67
2023/12/03 06:58:11;;;;;;;23.20;13.80;;;-0.70;99.90;;;;;;5014011;28;21326;-68
2023/12/03 07:00:37;;;;;;;24.50;14.87;;;-0.70;99.90;;;;;;5014362;28;20192;-67
2023/12/03 07:03:03;;;;;;;23.87;14.47;;;-0.70;99.90;;;;;;5020941;28;20437;-67
2023/12/03 07:05:29;;;;;;;22.27;13.77;;;-0.70;99.90;;;;;;5016561;28;20437;-67
2023/12/03 07:07:54;;;;;;;25.47;14.10;;;-0.70;99.90;;;;;;5017893;28;20537;-67
2023/12/03 07:10:20;;;;;;;24.40;13.47;;;-0.60;99.90;;;;;;5011933;28;20199;-67
2023/12/03 07:12:46;;;;;;;21.50;13.30;;;-0.70;99.90;;;;;;5020702;28;20195;-67
2023/12/03 07:15:11;;;;;;;25.27;15.23;;;-0.80;99.90;;;;;;5019362;28;20411;-67
2023/12/03 07:17:39;;;;;;;24.93;14.33;;;-0.90;99.90;;;;;;5017614;28;20174;-67
2023/12/03 07:20:06;;;;;;;23.13;14.00;;;-0.80;99.90;;;;;;5017183;28;20645;-67
2023/12/03 07:22:32;;;;;;;25.50;13.47;;;-0.70;99.90;;;;;;5019179;28;20432;-67
2023/12/03 07:24:57;;;;;;;26.80;15.10;;;-0.70;99.90;;;;;;5017664;28;20832;-67
2023/12/03 07:27:23;;;;;;;22.37;13.23;;;-0.70;99.90;;;;;;5018340;28;20196;-68
2023/12/03 07:29:55;;;;;;;28.23;14.07;;;-0.70;99.90;;;;;;5020609;28;20175;-66
2023/12/03 07:32:26;;;;;;;17.60;12.20;;;-0.70;99.90;;;;;;5018365;28;20850;-65
2023/12/03 07:34:52;;;;;;;24.70;14.97;;;-0.80;99.90;;;;;;5012467;28;20440;-65
2023/12/03 07:37:18;;;;;;;25.90;13.70;;;-0.70;99.90;;;;;;5019153;28;20427;-66
2023/12/03 07:39:44;;;;;;;23.57;14.00;;;-0.70;99.90;;;;;;5015933;28;20430;-65
2023/12/03 07:42:09;;;;;;;25.17;14.40;;;-0.70;99.90;;;;;;5016829;28;20191;-65
2023/12/03 07:44:35;;;;;;;22.83;13.70;;;-0.60;99.90;;;;;;5021797;28;20198;-65
2023/12/03 07:47:01;;;;;;;27.03;14.47;;;-0.60;99.90;;;;;;5015729;28;20179;-65
2023/12/03 07:49:26;;;;;;;22.80;14.27;;;-0.60;99.90;;;;;;5014898;28;20184;-65
2023/12/03 07:51:52;;;;;;;26.13;13.03;;;-0.50;99.90;;;;;;5014255;28;20539;-66
2023/12/03 07:54:18;;;;;;;25.63;14.90;;;-0.50;99.90;;;;;;5010796;28;20218;-66
2023/12/03 07:56:44;;;;;;;20.90;12.80;;;-0.50;99.90;;;;;;5018603;28;20342;-67
2023/12/03 07:59:09;;;;;;;27.20;14.80;;;-0.50;99.90;;;;;;5019624;28;20178;-67
2023/12/03 08:01:36;;;;;;;26.67;14.27;;;-0.50;99.90;;;;;;5018808;28;20425;-66
2023/12/03 08:04:03;;;;;;;25.97;14.63;;;-0.40;99.90;;;;;;5016807;28;20207;-66
2023/12/03 08:06:29;;;;;;;23.37;14.40;;;-0.30;99.90;;;;;;5018437;28;20481;-67
2023/12/03 08:08:55;;;;;;;22.43;13.53;;;-0.10;99.90;;;;;;5016794;28;20471;-66
2023/12/03 08:11:21;;;;;;;19.97;13.60;;;0.00;99.90;;;;;;5015067;28;20198;-66
2023/12/03 08:13:47;;;;;;;25.33;14.03;;;-0.10;99.90;;;;;;5018645;28;21332;-67
2023/12/03 08:16:13;;;;;;;25.27;14.27;;;0.00;99.90;;;;;;5017516;28;20184;-67
2023/12/03 08:18:39;;;;;;;20.70;13.50;;;0.10;99.90;;;;;;5016367;28;20426;-66
2023/12/03 08:21:05;;;;;;;21.00;13.03;;;0.10;99.90;;;;;;5019669;28;20196;-67
2023/12/03 08:23:32;;;;;;;25.13;14.93;;;0.10;99.90;;;;;;5020989;28;21407;-66
2023/12/03 08:25:58;;;;;;;21.80;13.80;;;0.10;99.90;;;;;;5022535;28;20449;-67
2023/12/03 08:28:23;;;;;;;24.97;14.80;;;0.10;99.90;;;;;;5019617;28;20420;-68
2023/12/03 08:30:49;;;;;;;27.33;14.67;;;0.10;99.90;;;;;;5020441;28;20663;-68
2023/12/03 08:33:15;;;;;;;30.33;14.67;;;0.10;99.90;;;;;;5020680;28;20223;-67
2023/12/03 08:35:41;;;;;;;23.17;14.57;;;0.10;99.90;;;;;;5023980;28;20179;-67
2023/12/03 08:38:07;;;;;;;28.27;15.17;;;0.20;99.90;;;;;;5020053;28;20187;-67
2023/12/03 08:40:32;;;;;;;20.07;12.47;;;0.20;99.90;;;;;;5021356;28;20423;-67
2023/12/03 08:42:58;;;;;;;23.57;14.03;;;0.20;99.90;;;;;;5019177;28;20200;-66
2023/12/03 08:45:24;;;;;;;21.00;13.43;;;0.10;99.90;;;;;;5023088;28;20227;-66
2023/12/03 08:47:49;;;;;;;21.60;13.37;;;0.10;99.90;;;;;;5021613;28;20418;-66
2023/12/03 08:50:15;;;;;;;23.73;14.40;;;0.10;99.90;;;;;;5020193;28;20370;-65
2023/12/03 08:52:41;;;;;;;23.50;13.57;;;0.10;99.90;;;;;;5022694;28;20210;-65
2023/12/03 08:55:07;;;;;;;22.03;14.03;;;0.10;99.90;;;;;;5019184;28;20547;-65
2023/12/03 08:57:32;;;;;;;23.97;14.60;;;0.20;99.90;;;;;;5020884;28;20634;-66
2023/12/03 09:00:04;;;;;;;22.90;14.50;;;0.30;99.90;;;;;;5021423;28;20434;-66
2023/12/03 09:02:33;;;;;;;20.13;13.43;;;0.40;99.90;;;;;;5019313;28;20221;-68
2023/12/03 09:04:59;;;;;;;25.83;14.93;;;0.40;99.90;;;;;;5018093;28;20509;-67
2023/12/03 09:07:24;;;;;;;22.60;15.03;;;0.50;99.90;;;;;;5018519;28;20895;-67
2023/12/03 09:09:50;;;;;;;23.20;14.30;;;0.50;99.90;;;;;;5022871;28;20203;-67
2023/12/03 09:12:17;;;;;;;23.40;13.60;;;0.50;99.90;;;;;;5019973;28;20298;-66
2023/12/03 09:14:43;;;;;;;25.47;14.90;;;0.50;99.90;;;;;;5018478;28;20189;-66
2023/12/03 09:17:09;;;;;;;21.37;13.33;;;0.50;99.90;;;;;;5017579;28;20443;-67
2023/12/03 09:19:34;;;;;;;23.33;14.47;;;0.60;99.90;;;;;;5021587;28;20183;-67
2023/12/03 09:22:00;;;;;;;20.80;13.37;;;0.60;99.90;;;;;;5021402;28;20410;-67
2023/12/03 09:24:25;;;;;;;22.80;13.20;;;0.60;99.90;;;;;;5018430;28;20943;-67
2023/12/03 09:26:51;;;;;;;23.30;12.90;;;0.70;99.90;;;;;;5014761;28;20190;-65
2023/12/03 09:29:17;;;;;;;22.73;12.10;;;0.70;99.90;;;;;;5019295;28;20196;-67
2023/12/03 09:31:42;;;;;;;22.23;13.93;;;0.70;99.90;;;;;;5018739;28;20612;-66
2023/12/03 09:34:08;;;;;;;23.57;13.67;;;0.60;99.90;;;;;;5011989;28;20197;-65
2023/12/03 09:36:34;;;;;;;23.20;14.30;;;0.70;99.90;;;;;;5020248;28;20861;-66
2023/12/03 09:39:00;;;;;;;22.10;13.60;;;0.70;99.90;;;;;;5021921;28;20196;-66
2023/12/03 09:41:33;;;;;;;22.70;14.80;;;0.70;99.90;;;;;;5012504;28;20435;-67
2023/12/03 09:44:02;;;;;;;21.77;13.73;;;0.80;99.90;;;;;;5020003;28;20552;-65
2023/12/03 09:46:36;;;;;;;26.57;15.10;;;0.90;99.90;;;;;;5013789;28;20435;-66
2023/12/03 09:49:04;;;;;;;23.00;13.57;;;0.90;99.90;;;;;;5009918;28;20420;-66
2023/12/03 09:51:32;;;;;;;24.40;14.70;;;1.00;99.90;;;;;;5022090;28;21062;-66
2023/12/03 09:53:59;;;;;;;23.53;13.60;;;1.10;99.90;;;;;;5022635;28;20451;-67
2023/12/03 09:56:25;;;;;;;23.60;14.30;;;1.20;99.90;;;;;;5016875;28;20423;-67
2023/12/03 09:58:52;;;;;;;19.60;13.40;;;1.10;99.90;;;;;;5020319;28;20430;-67
2023/12/03 10:01:18;;;;;;;23.03;13.93;;;1.10;99.90;;;;;;5017026;28;20538;-65
2023/12/03 10:03:43;;;;;;;22.30;13.57;;;1.20;99.90;;;;;;5016908;28;20447;-65
2023/12/03 10:06:11;;;;;;;26.23;14.17;;;1.20;99.90;;;;;;5011030;28;20846;-65
2023/12/03 10:08:41;;;;;;;23.43;14.23;;;1.30;99.90;;;;;;5019493;28;20607;-66
2023/12/03 10:11:10;;;;;;;23.53;13.80;;;1.30;99.90;;;;;;5018121;28;20541;-67
2023/12/03 10:13:36;;;;;;;21.20;13.37;;;1.30;99.90;;;;;;5014962;28;20451;-68
2023/12/03 10:16:02;;;;;;;24.07;14.73;;;1.40;99.90;;;;;;5021983;28;20829;-67
2023/12/03 10:18:28;;;;;;;19.17;13.20;;;1.40;99.90;;;;;;5023168;28;20436;-67
2023/12/03 10:21:08;;;;;;;24.50;15.57;;;1.50;99.90;;;;;;5019801;28;20198;-67
2023/12/03 10:23:35;;;;;;;22.10;13.87;;;1.50;99.90;;;;;;5015467;28;20260;-67
2023/12/03 10:26:10;;;;;;;23.40;13.77;;;1.40;99.90;;;;;;5013524;28;20420;-67
2023/12/03 10:28:35;;;;;;;24.00;15.23;;;1.50;99.90;;;;;;5009326;28;20434;-68
2023/12/03 10:31:01;;;;;;;24.63;14.90;;;1.40;99.90;;;;;;5012619;28;20999;-67
2023/12/03 10:33:27;;;;;;;26.57;15.17;;;1.40;99.90;;;;;;5013803;28;20755;-67
2023/12/03 10:35:59;;;;;;;23.07;14.33;;;1.40;99.90;;;;;;5013765;28;20220;-67
2023/12/03 10:38:25;;;;;;;23.03;14.40;;;1.50;99.90;;;;;;5011003;28;20206;-67
2023/12/03 10:40:51;;;;;;;24.90;13.53;;;1.60;99.90;;;;;;5014464;28;20522;-67
2023/12/03 10:43:17;;;;;;;24.50;15.83;;;1.60;99.90;;;;;;5013269;28;20457;-67
2023/12/03 10:45:42;;;;;;;24.57;15.20;;;1.60;99.90;;;;;;5019367;28;20195;-67
2023/12/03 10:48:09;;;;;;;25.30;14.23;;;1.60;99.90;;;;;;5017719;28;20224;-67
2023/12/03 10:50:38;;;;;;;23.43;13.83;;;1.70;99.90;;;;;;5016677;28;20196;-67
2023/12/03 10:53:05;;;;;;;23.40;14.53;;;1.70;99.90;;;;;;5011571;28;20549;-68
2023/12/03 10:55:33;;;;;;;25.13;15.03;;;1.80;99.90;;;;;;5012628;28;20449;-68
2023/12/03 10:58:06;;;;;;;25.30;14.60;;;1.70;99.90;;;;;;5016864;28;20423;-68
2023/12/03 11:00:46;;;;;;;23.07;13.70;;;1.70;99.90;;;;;;5012716;28;20487;-68
2023/12/03 11:03:23;;;;;;;22.47;13.93;;;1.80;99.90;;;;;;5010474;28;20462;-66
2023/12/03 11:05:52;;;;;;;21.67;14.10;;;1.70;99.90;;;;;;5012297;28;20434;-67
2023/12/03 11:08:21;;;;;;;26.73;15.97;;;1.70;99.90;;;;;;5013015;28;20435;-66
2023/12/03 11:10:47;;;;;;;22.00;14.37;;;1.70;99.90;;;;;;5017162;28;20511;-66
2023/12/03 11:13:15;;;;;;;25.53;16.73;;;1.80;99.90;;;;;;5017091;28;20875;-66
2023/12/03 11:15:44;;;;;;;22.27;14.50;;;1.80;99.90;;;;;;5012092;28;20209;-66
2023/12/03 11:18:11;;;;;;;22.23;13.30;;;1.90;99.90;;;;;;5017965;28;20426;-67
2023/12/03 11:20:39;;;;;;;22.40;14.37;;;2.10;99.90;;;;;;5009274;28;20459;-66
2023/12/03 11:23:25;;;;;;;25.07;14.73;;;2.20;99.90;;;;;;5015937;28;20454;-66
2023/12/03 11:26:08;;;;;;;29.90;13.67;;;2.30;99.90;;;;;;5007771;28;20443;-67
2023/12/03 11:28:34;;;;;;;22.50;13.83;;;2.30;99.90;;;;;;5011615;28;20416;-67
2023/12/03 11:30:59;;;;;;;21.37;13.17;;;2.30;99.90;;;;;;5016139;28;20470;-67
2023/12/03 11:33:27;;;;;;;21.87;13.50;;;2.30;99.90;;;;;;5013773;28;20201;-67
2023/12/03 11:35:53;;;;;;;20.97;13.97;;;2.30;99.90;;;;;;5012665;28;20713;-67
2023/12/03 11:38:21;;;;;;;23.00;14.00;;;2.30;99.90;;;;;;5012316;28;20440;-67
2023/12/03 11:40:48;;;;;;;28.90;14.53;;;2.40;99.90;;;;;;5018273;28;20271;-67
2023/12/03 11:43:32;;;;;;;23.07;14.53;;;2.60;99.90;;;;;;5016562;28;20452;-67
2023/12/03 11:45:58;;;;;;;19.80;12.43;;;2.70;99.90;;;;;;5017834;28;20422;-68
2023/12/03 11:48:29;;;;;;;17.53;12.00;;;3.10;99.90;;;;;;5018859;28;21267;-67
2023/12/03 11:50:59;;;;;;;19.43;13.40;;;3.40;99.90;;;;;;5014754;28;20466;-67
2023/12/03 11:53:52;;;;;;;22.10;14.43;;;3.50;99.90;;;;;;5012351;28;20525;-67
2023/12/03 11:56:20;;;;;;;21.20;13.70;;;3.70;99.90;;;;;;5019095;28;20434;-67
2023/12/03 11:58:46;;;;;;;21.90;15.20;;;4.20;99.90;;;;;;5018925;28;20420;-67
2023/12/03 12:01:12;;;;;;;21.07;13.60;;;5.10;99.90;;;;;;5017901;28;20426;-67
2023/12/03 12:03:37;;;;;;;19.10;13.70;;;5.60;99.90;;;;;;5018605;28;20554;-67
2023/12/03 12:06:03;;;;;;;21.93;13.33;;;5.70;99.90;;;;;;5020571;28;20200;-67
2023/12/03 12:08:29;;;;;;;18.60;13.03;;;5.90;99.90;;;;;;5016472;28;20197;-67
2023/12/03 12:10:55;;;;;;;16.80;12.00;;;6.70;99.90;;;;;;5022136;28;20204;-67
2023/12/03 12:13:22;;;;;;;16.93;12.50;;;8.10;99.90;;;;;;5017093;28;20200;-67
2023/12/03 12:15:48;;;;;;;15.70;12.83;;;9.60;99.90;;;;;;5020831;28;20560;-67
2023/12/03 12:18:13;;;;;;;15.17;12.00;;;10.60;99.90;;;;;;5018858;28;21004;-67
2023/12/03 12:20:39;;;;;;;16.00;13.47;;;11.30;99.90;;;;;;5018043;28;20820;-66
2023/12/03 12:23:04;;;;;;;16.70;13.67;;;11.40;97.50;;;;;;5021974;28;20235;-66
2023/12/03 12:25:30;;;;;;;15.43;11.90;;;11.60;96.70;;;;;;5021510;28;20677;-67
2023/12/03 12:27:56;;;;;;;15.40;11.37;;;11.50;93.90;;;;;;5021717;28;20173;-66
2023/12/03 12:30:28;;;;;;;14.50;11.23;;;11.30;92.80;;;;;;5011256;28;20209;-67